Stations météo

réclame
Mon MeteoGroup
Zinnwald-Georgenfeld, Allemagne (10582): Température de l'air & dewpoint: 15.02.2018 16:00:00 - 21.02.2018 16:00:00 (CET)Zinnwald-Georgenfeld, Allemagne (10582): Température de l'air 5cm & Température de l'air -5cm: 15.02.2018 16:00:00 - 21.02.2018 16:00:00 (CET)Zinnwald-Georgenfeld, Allemagne (10582): Température de l'air -20cm & Température de l'air -100cm: 15.02.2018 16:00:00 - 21.02.2018 16:00:00 (CET)Zinnwald-Georgenfeld, Allemagne (10582): Vitesse du vent & gusts: 15.02.2018 16:00:00 - 21.02.2018 16:00:00 (CET)Zinnwald-Georgenfeld, Allemagne (10582): Direction du vent: 15.02.2018 16:00:00 - 21.02.2018 16:00:00 (CET)Zinnwald-Georgenfeld, Allemagne (10582): visibility: 15.02.2018 16:00:00 - 21.02.2018 16:00:00 (CET)Zinnwald-Georgenfeld, Allemagne (10582): Ensoleillement: 15.02.2018 16:00:00 - 21.02.2018 16:00:00 (CET)Zinnwald-Georgenfeld, Allemagne (10582): Quantités de précipitations: 15.02.2018 16:00:00 - 21.02.2018 16:00:00 (CET)
Date & Time tt [°C] td [°C] tt 5cm [°C] tt -5cm [°C] tt -20cm [°C] tt -100cm [°C] ff [km/h] ff [knt] fx [km/h] fx [knt] dd vv [km] sd [min] rr [mm]
21.02.2018 16:00:00 -5,0 -8,5 -0,5 -0,1 0,1 2,1 25 14 46 25 NNE 13 50 0,0
21.02.2018 15:00:00 -4,2 -9,7 -0,5 -0,1 0,1 2,1 31 17 47 26 NNE 15 60 0,0
21.02.2018 14:00:00 -5,1 -7,2 -0,6 -0,1 0,1 2,1 26 14 41 22 NNE 9 58 0,0
21.02.2018 13:00:00 -6,6 -7,2 -0,7 -0,1 0,1 2,1 29 15 41 22 NNE 7 32 0,0
21.02.2018 12:00:00 -7,0 -7,8 -0,8 -0,1 0,1 2,1 26 14 41 22 NNE 10 59 0,0
21.02.2018 11:00:00 -7,4 -8,2 -0,9 -0,1 0,1 2,1 25 14 39 21 NNE 5 37 0,0
21.02.2018 10:00:00 -7,5 -8,1 -0,9 -0,1 0,1 2,1 24 13 40 22 NNE 6 54 0,0
21.02.2018 09:00:00 -7,3 -8,1 -1,0 -0,1 0,1 2,1 22 12 36 20 NE 10 59 0,0
21.02.2018 08:00:00 -8,6 -9,2 -1,0 -0,1 0,1 2,1 19 10 30 16 NE 1,8 0 0,0
21.02.2018 07:00:00 -8,4 -9,0 -1,0 -0,1 0,1 2,1 21 11 37 20 NE 3,7 0 0,0
21.02.2018 06:00:00 -8,0 -8,5 -0,9 -0,1 0,1 2,1 26 14 35 19 NNE 3,8 0 0,0
21.02.2018 05:00:00 -7,8 -8,1 -0,9 -0,1 0,1 2,1 23 12 31 17 NNE 0,9 0 0,0
21.02.2018 04:00:00 -8,2 -8,5 -1,0 -0,1 0,1 2,1 18 10 24 13 NNE 0,3 0 0,0
21.02.2018 03:00:00 -7,5 -8,2 -0,8 -0,1 0,1 2,1 15 8 23 13 NNE 4,8 0 0,0
21.02.2018 02:00:00 -7,5 -7,9 -0,8 -0,1 0,1 2,1 15 8 19 11 NNE 1,7 0 0,0
21.02.2018 01:00:00 -7,1 -7,6 -0,7 0,0 0,1 2,1 14 7 21 11 NNE 2,7 0 0,0
21.02.2018 00:00:00 -7,2 -7,4 -0,7 0,0 0,1 2,1 11 6 19 10 NE 0,2 0 0,0
20.02.2018 23:00:00 -6,9 -7,1 -0,6 0,0 0,1 2,1 15 8 24 13 NNE 1,8 0 0,0
20.02.2018 22:00:00 -6,6 -6,9 -0,6 0,0 0,1 2,1 11 6 24 13 NE 2,8 0 0,0
20.02.2018 21:00:00 -6,2 -6,5 -0,5 0,0 0,1 2,1 18 10 32 18 NNE 3,1 0 0,0
20.02.2018 20:00:00 -5,3 -6,0 -0,5 0,0 0,1 2,1 24 13 34 18 NNE 3,8 0 0,0
20.02.2018 19:00:00 -4,8 -5,8 -0,4 0,0 0,1 2,1 21 11 31 17 NNE 4,3 0 0,0
20.02.2018 18:00:00 -4,3 -5,2 -0,4 0,0 0,1 2,1 19 10 27 15 NNE 3,8 0 0,0
20.02.2018 17:00:00 -3,4 -5,9 -0,3 -0,1 0,1 2,1 16 9 28 15 NNE 8 0 0,0
20.02.2018 16:00:00 -2,4 -6,6 -0,3 -0,1 0,1 2,1 14 8 20 11 NE 19 16 0,0
20.02.2018 15:00:00 -2,1 -6,1 -0,3 -0,1 0,1 2,1 11 6 17 9 ENE 18 14 0,0
20.02.2018 14:00:00 -2,1 -6,1 -0,4 -0,1 0,1 2,1 5 3 18 10 E 14 37 0,0
20.02.2018 13:00:00 -3,2 -6,4 -0,5 -0,1 0,1 2,1 15 8 24 13 SE 11 51 0,0
20.02.2018 12:00:00 -4,1 -5,3 -0,6 -0,1 0,1 2,1 14 8 25 13 SE 11 42 0,0
20.02.2018 11:00:00 -4,8 -5,3 -0,7 -0,1 0,1 2,1 14 8 26 14 SE 8 17 0,0
20.02.2018 10:00:00 -5,8 -6,1 -0,7 -0,1 0,1 2,1 16 9 27 14 SSE 3,7 0 0,0
20.02.2018 09:00:00 -6,1 -6,4 -0,7 -0,1 0,1 2,1 17 9 27 15 SSE 1,9 0 0,0
20.02.2018 08:00:00 -6,6 -7,0 -0,7 -0,1 0,1 2,1 22 12 36 19 SSE 2,7 0 0,0
20.02.2018 07:00:00 -6,6 -6,9 -0,7 -0,1 0,1 2,1 19 10 29 16 SSE 1,1 0 0,0
20.02.2018 06:00:00 -6,5 -6,8 -0,7 -0,1 0,1 2,1 16 8 29 16 SSE 0,2 0 0,0
20.02.2018 05:00:00 -6,4 -6,6 -0,7 -0,1 0,1 2,1 16 9 31 17 SSE 0,2 0 0,0
20.02.2018 04:00:00 -6,3 -6,4 -0,7 -0,1 0,1 2,1 20 11 38 21 SSE 0,2 0 0,0
20.02.2018 03:00:00 -6,3 -6,6 -0,7 -0,1 0,1 2,1 26 14 40 22 S 3,8 0 0,0
20.02.2018 02:00:00 -6,2 -6,3 -0,7 -0,1 0,1 2,1 23 12 34 18 S 0,7 0 0,0
20.02.2018 01:00:00 -6,0 -6,0 -0,7 -0,1 0,1 2,1 13 7 18 10 SSE 0,2 0 0,0
20.02.2018 00:00:00 -5,8 -6,0 -0,7 -0,1 0,1 2,1 11 6 18 10 SE 1,4 0 0,0
19.02.2018 23:00:00 -5,5 -5,9 -0,7 -0,1 0,1 2,1 8 5 16 9 SE 3,2 0 0,0
19.02.2018 22:00:00 -5,5 -6,1 -0,7 -0,1 0,1 2,1 9 5 31 17 SE 3,7 0 0,0
19.02.2018 21:00:00 -5,4 -6,1 -0,6 0,0 0,1 2,1 21 11 32 17 SSE 4,6 0 0,0
19.02.2018 20:00:00 -5,6 -6,7 -0,6 0,0 0,1 2,1 16 9 29 15 SSE 7 0 0,0
19.02.2018 19:00:00 -5,3 -6,8 -0,5 0,0 0,1 2,1 17 9 28 15 SSE 8 0 0,0
19.02.2018 18:00:00 -5,2 -7,8 -0,4 0,0 0,1 2,1 15 8 22 12 SSE 13 0 0,0
19.02.2018 17:00:00 -4,4 -7,4 -0,4 -0,1 0,1 2,1 16 8 29 16 SSE 14 5 0,0
19.02.2018 16:00:00 -3,9 -8,1 -0,4 -0,1 0,1 2,1 17 9 24 13 SSE 18 43 0,0
19.02.2018 15:00:00 -3,6 -7,0 -0,5 -0,1 0,1 2,1 14 8 24 13 SSE 15 44 0,0
19.02.2018 14:00:00 -3,0 -6,6 -0,5 -0,1 0,1 2,1 16 8 29 16 SSE 9 60 0,0
19.02.2018 13:00:00 -3,8 -7,1 -0,6 -0,1 0,1 2,1 21 12 37 20 S 13 59 0,0
19.02.2018 12:00:00 -3,9 -7,3 -0,7 -0,1 0,1 2,1 27 14 43 23 S 14 60 0,0
19.02.2018 11:00:00 -4,8 -7,6 -0,8 -0,1 0,1 2,1 29 16 42 23 S 14 58 0,0
19.02.2018 10:00:00 -5,4 -7,1 -1,0 -0,1 0,1 2,1 28 15 41 22 S 13 54 0,0
19.02.2018 09:00:00 -5,6 -6,6 -1,0 -0,1 0,1 2,1 29 15 40 21 S 10 58 0,0
19.02.2018 08:00:00 -6,4 -7,0 -0,9 -0,1 0,1 2,1 27 15 35 19 SSE 9 9 0,0
19.02.2018 07:00:00 -6,6 -7,2 -1,0 -0,1 0,1 2,1 18 10 32 17 S 8 0 0,0
19.02.2018 06:00:00 -6,8 -7,4 -0,8 -0,1 0,1 2,1 18 10 29 15 S 10 0 0,0
19.02.2018 05:00:00 -6,5 -7,1 -0,8 0,0 0,1 2,1 23 13 32 18 S 10 0 0,0
19.02.2018 04:00:00 -6,6 -7,0 -0,7 0,0 0,1 2,1 22 12 32 18 S 6 0 0,0
19.02.2018 03:00:00 -6,9 -7,2 -0,7 0,0 0,1 2,1 22 12 29 16 S 6 0 0,0
19.02.2018 02:00:00 -6,9 -7,2 -0,6 0,0 0,1 2,1 21 12 28 15 S 7 0 0,0
19.02.2018 01:00:00 -6,7 -7,0 -0,6 0,0 0,1 2,1 23 12 31 17 S 7 0 0,0
19.02.2018 00:00:00 -6,1 -6,6 -0,5 0,0 0,1 2,1 21 12 29 15 S 8 0 0,0
18.02.2018 23:00:00 -5,6 -6,2 -0,5 0,0 0,1 2,1 16 9 26 14 S 8 0 0,0
18.02.2018 22:00:00 -4,8 -5,6 -0,5 0,0 0,1 2,1 16 9 23 12 S 9 0 0,0
18.02.2018 21:00:00 -4,6 -5,3 -0,5 0,0 0,1 2,1 14 7 22 12 S 10 0 0,0
18.02.2018 20:00:00 -4,3 -5,5 -0,4 0,0 0,1 2,1 13 7 18 10 S 12 0 0,0
18.02.2018 19:00:00 -4,2 -6,0 -0,4 0,0 0,1 2,1 12 7 18 10 S 21 0 0,0
18.02.2018 18:00:00 -3,9 -5,8 -0,3 0,0 0,1 2,1 10 5 16 9 SSW 21 0 0,0
18.02.2018 17:00:00 -3,5 -5,8 -0,4 0,0 0,1 2,1 6 4 13 7 SW 27 0 0,0
18.02.2018 16:00:00 -3,0 -5,3 -0,4 0,0 0,1 2,1 0 0 6 4 N 31 0 0,0
18.02.2018 15:00:00 -3,1 -5,4 -0,4 0,0 0,1 2,1 4 2 8 5 NNE 30 0 0,0
18.02.2018 14:00:00 -3,4 -5,6 -0,4 0,0 0,1 2,1 5 3 11 6 W 26 0 0,0
18.02.2018 13:00:00 -3,6 -5,1 -0,4 0,0 0,1 2,1 3 2 11 6 W 29 0 0,0
18.02.2018 12:00:00 -3,7 -4,4 -0,5 -0,1 0,1 2,1 5 3 16 8 NE 22 0 0,0
18.02.2018 11:00:00 -3,8 -4,3 -0,5 -0,1 0,1 2,1 8 4 15 8 ENE 24 0 0,0
18.02.2018 10:00:00 -3,8 -3,9 -0,5 -0,1 0,1 2,1 9 5 14 7 NE 10 0 0,0
18.02.2018 09:00:00 -3,8 -3,8 -0,5 -0,1 0,1 2,1 5 3 18 10 NNE 5 0 0,0
18.02.2018 08:00:00 -3,8 -3,8 -0,5 -0,1 0,1 2,1 10 6 18 10 NNE 1,4 0 0,0
18.02.2018 07:00:00 -3,8 -3,8 -0,6 -0,1 0,1 2,1 13 7 21 11 NNE 2,8 0 0,0
18.02.2018 06:00:00 -3,7 -3,7 -0,6 -0,1 0,1 2,1 14 8 23 12 NNE 2,5 0 0,0
18.02.2018 05:00:00 -3,6 -3,6 -0,6 -0,1 0,1 2,1 13 7 22 12 NNE 3,6 0 0,0
18.02.2018 04:00:00 -3,6 -3,6 -0,6 -0,1 0,1 2,1 10 5 20 11 NNE 0,1 0 0,0
18.02.2018 03:00:00 -3,6 -3,6 -0,6 -0,1 0,1 2,1 11 6 22 12 NNE 0,1 0 0,0
18.02.2018 02:00:00 -3,8 -3,8 -0,6 -0,1 0,1 2,1 12 6 20 11 N 0,2 0 0,0
18.02.2018 01:00:00 -3,7 -4,0 -0,6 -0,1 0,1 2,1 12 7 21 11 NNE 8 0 0,0
18.02.2018 00:00:00 -3,8 -4,4 -0,6 -0,1 0,1 2,1 13 7 32 18 NE 10 0 0,0
17.02.2018 23:00:00 -3,7 -4,9 -0,6 -0,1 0,1 2,1 20 11 30 16 NNE 12 0 0,0
17.02.2018 22:00:00 -3,8 -5,2 -0,5 -0,1 0,1 2,1 20 11 29 15 NNE 13 0 0,0
17.02.2018 21:00:00 -4,0 -5,1 -0,5 -0,1 0,1 2,1 13 7 24 13 NNE 10 0 0,0
17.02.2018 20:00:00 -3,8 -4,6 -0,5 -0,1 0,1 2,1 14 7 21 11 NE 8 0 0,0
17.02.2018 19:00:00 -3,5 -4,0 -0,5 -0,1 0,1 2,1 16 8 21 11 NE 6 0 0,0
17.02.2018 18:00:00 -3,4 -3,8 -0,5 -0,1 0,1 2,1 13 7 25 13 NNE 4,6 0 0,0
17.02.2018 17:00:00 -3,0 -4,0 -0,5 -0,1 0,1 2,1 18 10 25 14 NE 8 0 0,0
17.02.2018 16:00:00 -2,6 -4,5 -0,5 -0,1 0,1 2,1 22 12 27 15 NE 16 0 0,0
17.02.2018 15:00:00 -2,4 -5,3 -0,6 -0,1 0,1 2,1 16 9 24 13 ENE 18 0 0,0
17.02.2018 14:00:00 -2,0 -6,5 -0,7 -0,1 0,1 2,1 16 9 20 11 E 37 0 0,0
17.02.2018 13:00:00 -2,5 -4,3 -0,8 -0,1 0,1 2,1 10 5 17 9 SE 9 0 0,0
17.02.2018 12:00:00 -3,0 -3,4 -0,9 -0,1 0,1 2,1 11 6 18 10 SSE 3,1 0 0,0
17.02.2018 11:00:00 -2,7 -3,5 -1,0 -0,1 0,1 2,1 9 5 16 9 SE 10 0 0,0
17.02.2018 10:00:00 -3,2 -3,5 -1,0 -0,1 0,1 2,1 6 3 11 6 SSE 8 0 0,0
17.02.2018 09:00:00 -3,8 -3,9 -1,0 -0,1 0,1 2,1 7 4 11 6 SSE 10 0 0,0
17.02.2018 08:00:00 -4,5 -4,8 -1,0 -0,1 0,1 2,1 7 4 10 5 SSE 7 0 0,0
17.02.2018 07:00:00 -4,3 -4,8 -0,9 -0,1 0,1 2,1 5 3 9 5 SSE 12 0 0,0
17.02.2018 06:00:00 -4,4 -6,4 -0,9 0,0 0,1 2,1 5 3 8 5 S 28 0 0,0
17.02.2018 05:00:00 -4,1 -4,4 -0,8 0,0 0,1 2,1 5 3 14 7 NW 15 0 0,0
17.02.2018 04:00:00 -4,2 -4,5 -0,8 0,0 0,1 2,1 10 6 13 7 W 8 0 0,0
17.02.2018 03:00:00 -4,1 -4,4 -0,7 0,0 0,1 2,1 8 4 11 6 W 9 0 0,0
17.02.2018 02:00:00 -4,0 -4,4 -0,6 0,0 0,1 2,1 9 5 14 8 W 10 0 0,0
17.02.2018 01:00:00 -4,0 -4,5 -0,5 0,0 0,1 2,1 9 5 14 7 WNW 11 0 0,0
17.02.2018 00:00:00 -4,0 -4,7 -0,5 0,0 0,1 2,1 6 3 13 7 W 10 0 0,0
16.02.2018 23:00:00 -3,2 -4,0 -0,5 0,0 0,1 2,1 9 5 26 14 WNW 10 0 0,0
16.02.2018 22:00:00 -2,5 -3,5 -0,4 0,0 0,1 2,1 14 8 23 12 WNW 13 0 0,0
16.02.2018 21:00:00 -2,5 -3,8 -0,4 0,0 0,1 2,1 12 6 18 10 NW 13 0 0,0
16.02.2018 20:00:00 -2,0 -3,2 -0,3 0,0 0,1 2,1 13 7 26 14 NW 13 0 0,0
16.02.2018 19:00:00 -1,5 -2,8 -0,3 0,0 0,1 2,1 18 10 32 17 WNW 12 0 0,0
16.02.2018 18:00:00 -0,7 -2,2 -0,3 0,0 0,1 2,1 11 6 26 14 NW 15 0 0,0
16.02.2018 17:00:00 -0,1 -3,4 -0,3 0,0 0,1 2,1 9 5 23 12 NW 38 0 0,0
16.02.2018 16:00:00 1,1 -4,2 -0,3 0,0 0,1 2,1 13 7 31 17 W 49 36 0,0
16.02.2018 15:00:00 1,5 -4,8 -0,3 0,0 0,1 2,1 21 11 37 20 W 19 60 0,0
16.02.2018 14:00:00 1,2 -4,1 -0,3 -0,1 0,1 2,1 21 11 36 19 W 17 59 0,0
16.02.2018 13:00:00 1,1 -3,7 -0,3 -0,1 0,1 2,1 16 8 28 15 W 13 60 0,0
16.02.2018 12:00:00 -0,2 -3,5 -0,3 -0,1 0,1 2,1 14 7 22 12 WNW 15 60 0,0
16.02.2018 11:00:00 -1,2 -1,8 -0,4 -0,1 0,1 2,1 13 7 22 12 WNW 12 60 0,0
16.02.2018 10:00:00 -1,1 -1,1 -0,4 -0,1 0,1 2,1 12 6 22 12 WNW 8 59 0,0
16.02.2018 09:00:00 -1,9 -1,9 -0,4 -0,1 0,1 2,1 12 7 27 14 NW 5 23 0,0
16.02.2018 08:00:00 -2,0 -2,0 -0,4 -0,1 0,1 2,1 17 9 31 17 NW 7 0 0,0
16.02.2018 07:00:00 -1,7 -1,7 -0,5 -0,1 0,1 2,1 18 10 34 18 NW 4,3 0 0,1
16.02.2018 06:00:00 -1,3 -1,3 -0,5 -0,1 0,1 2,1 21 11 30 16 NW 1,3 0 0,7
16.02.2018 05:00:00 -1,0 -1,0 -0,5 -0,1 0,1 2,1 19 10 27 15 WNW 1,5 0 0,7
16.02.2018 04:00:00 -0,9 -0,9 -0,6 -0,1 0,1 2,1 14 8 24 13 WNW 0,1 0 0,2
16.02.2018 03:00:00 -1,1 -1,1 -0,6 -0,1 0,1 2,1 13 7 23 12 W 0,2 0 0,1
16.02.2018 02:00:00 -1,6 -1,6 -0,6 -0,1 0,1 2,1 14 8 21 12 W 0,3 0 0,0
16.02.2018 01:00:00 -3,5 -3,5 -0,6 -0,1 0,1 2,1 10 5 24 13 SW 1,6 0 0,4
16.02.2018 00:00:00 -4,1 -4,3 -0,6 -0,1 0,1 2,1 18 10 29 15 S 3,2 0 0,7
15.02.2018 23:00:00 -4,4 -4,6 -0,6 -0,1 0,1 2,1 24 13 35 19 SSW 0,5 0 0,1
15.02.2018 22:00:00 -4,5 -4,7 -0,6 -0,1 0,1 2,1 29 16 46 25 S 0,2 0 0,0
15.02.2018 21:00:00 -4,6 -4,8 -0,6 -0,1 0,1 2,1 35 19 57 31 S 0,3 0 0,2
15.02.2018 20:00:00 -5,0 -5,3 -0,6 -0,1 0,1 2,1 40 22 56 31 S 1,4 0 0,1
15.02.2018 19:00:00 -5,1 -5,7 -0,6 -0,1 0,1 2,1 34 18 50 27 S 3,9 0 0,0
15.02.2018 18:00:00 -5,1 -5,5 -0,6 -0,1 0,1 2,1 28 15 42 23 S 6 0 0,0
15.02.2018 17:00:00 -4,9 -5,2 -0,6 -0,1 0,1 2,1 30 16 41 22 SSE 4,7 0 0,0
15.02.2018 16:00:00 -4,8 -5,1 -0,6 -0,1 0,1 2,1 27 15 41 22 S 3,2 0 0,0

tt = Température de l'air
td = dewpoint
tt 5cm = Température de l'air 5cm
tt -5cm = Température de l'air -5cm
tt -20cm = Température de l'air -20cm
tt -100cm = Température de l'air -100cm
ff = Vitesse du vent
fx = gusts
dd = Direction du vent
vv = visibility
sd = Ensoleillement
rr = Quantités de précipitations

stations d'obs. à proximité